CPX232 Details

Departure: Phoenix Sky Harbor International Airport (KPHX)
Arrival: Sacramento International Airport (KSMF) at N/A
Route: ZEPER1 SISIE DOVEE BTY KENNO DONNR SLMMR3
Notes:


Current Weather Information
KPHX 190651Z 26005KT 10SM CLR 22/M06 A2983 RMK AO2 SLP087 T02221061 402940200
KSMF 190653Z 14008KT 10SM CLR 13/09 A3003 RMK AO2 SLP168 T01330089